createdAt,value
2022-11-20T00:01:07.825Z,34.00
2022-11-20T00:03:35.467Z,34.40
2022-11-20T00:06:08.322Z,34.50
2022-11-20T00:08:35.627Z,45.80
2022-11-20T00:11:15.474Z,40.00
2022-11-20T00:13:48.010Z,37.10
2022-11-20T00:16:17.721Z,36.40
2022-11-20T00:18:45.873Z,34.50
2022-11-20T00:21:16.005Z,34.80
2022-11-20T00:23:43.693Z,34.00
2022-11-20T00:26:13.408Z,32.70
2022-11-20T00:28:40.989Z,32.70
2022-11-20T00:31:11.366Z,33.40
2022-11-20T00:33:38.390Z,30.80
2022-11-20T00:36:07.996Z,26.70
2022-11-20T00:38:35.915Z,27.70
2022-11-20T00:41:06.061Z,26.80
2022-11-20T00:43:33.366Z,29.00
2022-11-20T00:46:06.381Z,26.50
2022-11-20T00:48:34.093Z,26.00
2022-11-20T00:51:01.767Z,25.40
2022-11-20T00:53:28.904Z,25.60
2022-11-20T00:56:05.834Z,38.00
2022-11-20T00:58:37.289Z,27.30
2022-11-20T01:01:06.850Z,25.40
2022-11-20T01:03:40.829Z,24.30
2022-11-20T01:06:13.003Z,26.10
2022-11-20T01:08:40.481Z,25.20
2022-11-20T01:11:10.908Z,24.80
2022-11-20T01:13:38.314Z,22.80
2022-11-20T01:16:05.578Z,23.20
2022-11-20T01:18:32.745Z,24.20
2022-11-20T01:21:05.576Z,21.20
2022-11-20T01:23:34.443Z,23.70
2022-11-20T01:26:06.150Z,23.40
2022-11-20T01:28:33.788Z,22.00
2022-11-20T01:31:01.630Z,23.60
2022-11-20T01:33:29.187Z,23.60
2022-11-20T01:36:05.506Z,23.20
2022-11-20T01:38:32.631Z,26.10
2022-11-20T01:40:59.959Z,26.20
2022-11-20T01:43:27.446Z,25.40
2022-11-20T01:46:20.374Z,25.30
2022-11-20T01:49:21.289Z,24.20
2022-11-20T01:51:53.356Z,24.40
2022-11-20T01:54:26.727Z,22.60
2022-11-20T01:57:00.688Z,21.30
2022-11-20T01:59:30.169Z,22.70
2022-11-20T02:01:58.013Z,23.80
2022-11-20T02:04:25.929Z,24.30
2022-11-20T02:07:00.605Z,23.70
2022-11-20T02:09:29.067Z,24.10
2022-11-20T02:11:56.648Z,26.60
2022-11-20T02:14:24.779Z,25.30
2022-11-20T02:16:52.305Z,106.20
2022-11-20T02:19:27.188Z,271.90
2022-11-20T02:22:04.296Z,262.80
2022-11-20T02:24:31.523Z,91.90
2022-11-20T02:27:03.415Z,35.20
2022-11-20T02:29:38.574Z,35.80
2022-11-20T02:32:05.622Z,30.30
2022-11-20T02:34:33.029Z,27.90
2022-11-20T02:37:00.951Z,28.10
2022-11-20T02:39:29.533Z,29.40
2022-11-20T02:41:58.115Z,29.40
2022-11-20T02:44:25.189Z,29.20
2022-11-20T02:46:52.313Z,32.20
2022-11-20T02:49:19.914Z,28.10
2022-11-20T02:51:47.205Z,34.40
2022-11-20T02:54:14.329Z,28.30
2022-11-20T02:56:41.890Z,54.10
2022-11-20T02:59:09.143Z,34.90
2022-11-20T03:01:36.281Z,25.60
2022-11-20T03:04:03.932Z,31.20
2022-11-20T03:06:30.980Z,68.90
2022-11-20T03:08:58.013Z,37.10
2022-11-20T03:11:25.432Z,41.30
2022-11-20T03:13:52.834Z,38.50
2022-11-20T03:16:22.807Z,35.20
2022-11-20T03:18:50.623Z,34.10
2022-11-20T03:21:17.711Z,32.00
2022-11-20T03:23:44.769Z,33.80
2022-11-20T03:26:16.426Z,32.70
2022-11-20T03:28:48.260Z,33.00
2022-11-20T03:31:17.871Z,32.90
2022-11-20T03:33:45.198Z,29.40
2022-11-20T03:36:14.857Z,32.80
2022-11-20T03:38:42.674Z,33.10
2022-11-20T03:41:22.855Z,36.50
2022-11-20T03:43:51.645Z,30.50
2022-11-20T03:46:18.871Z,31.30
2022-11-20T03:48:51.147Z,34.00
2022-11-20T03:51:29.966Z,31.80
2022-11-20T03:53:59.244Z,32.20
2022-11-20T03:56:29.530Z,32.00
2022-11-20T03:58:56.902Z,31.50
2022-11-20T04:01:27.034Z,27.40
2022-11-20T04:03:55.833Z,29.50
2022-11-20T04:06:25.748Z,29.30
2022-11-20T04:08:54.991Z,33.70
2022-11-20T04:11:26.532Z,30.60
2022-11-20T04:13:56.544Z,32.30
2022-11-20T04:16:25.332Z,31.50
2022-11-20T04:18:57.986Z,32.90
2022-11-20T04:21:26.548Z,31.60
2022-11-20T04:23:54.726Z,33.50
2022-11-20T04:26:23.662Z,31.30
2022-11-20T04:28:51.300Z,30.50
2022-11-20T04:31:21.656Z,29.90
2022-11-20T04:33:48.774Z,28.20
2022-11-20T04:36:18.972Z,30.70
2022-11-20T04:38:47.023Z,30.60
2022-11-20T04:41:19.494Z,30.10
2022-11-20T04:43:51.789Z,30.20
2022-11-20T04:46:20.323Z,32.20
2022-11-20T04:48:48.578Z,31.90
2022-11-20T04:51:15.673Z,33.40
2022-11-20T04:53:42.801Z,30.90
2022-11-20T04:56:11.818Z,32.20
2022-11-20T04:58:39.638Z,29.10
2022-11-20T05:01:07.706Z,29.20
2022-11-20T05:03:38.470Z,30.60
2022-11-20T05:06:09.922Z,30.20
2022-11-20T05:08:36.967Z,32.70
2022-11-20T05:11:06.242Z,31.20
2022-11-20T05:13:33.353Z,30.10
2022-11-20T05:16:05.022Z,33.10
2022-11-20T05:18:32.406Z,34.10
2022-11-20T05:20:59.915Z,37.20
2022-11-20T05:23:27.037Z,32.40
2022-11-20T05:25:59.444Z,33.60
2022-11-20T05:28:28.864Z,42.30
2022-11-20T05:30:56.093Z,38.70
2022-11-20T05:33:23.476Z,35.60
2022-11-20T05:35:50.708Z,31.50
2022-11-20T05:38:17.748Z,31.50
2022-11-20T05:40:44.899Z,32.20
2022-11-20T05:43:11.973Z,31.10
2022-11-20T05:45:39.097Z,40.60
2022-11-20T05:48:06.222Z,79.30
2022-11-20T05:50:33.220Z,58.20
2022-11-20T05:53:00.858Z,107.70
2022-11-20T05:55:28.939Z,52.80
2022-11-20T05:57:56.421Z,40.20
2022-11-20T06:00:23.590Z,36.80
2022-11-20T06:02:50.716Z,62.60
2022-11-20T06:05:17.863Z,77.50
2022-11-20T06:07:45.042Z,51.50
2022-11-20T06:10:12.430Z,40.90
2022-11-20T06:12:39.469Z,38.80
2022-11-20T06:15:07.337Z,29.90
2022-11-20T06:17:34.437Z,35.30
2022-11-20T06:20:01.919Z,36.00
2022-11-20T06:22:28.992Z,47.20
2022-11-20T06:24:55.965Z,46.00
2022-11-20T06:27:23.063Z,42.50
2022-11-20T06:29:50.111Z,35.90
2022-11-20T06:32:17.137Z,33.60
2022-11-20T06:34:44.745Z,35.70
2022-11-20T06:37:11.770Z,32.40
2022-11-20T06:39:38.817Z,31.40
2022-11-20T06:42:05.889Z,30.00
2022-11-20T06:44:32.964Z,29.60
2022-11-20T06:46:59.986Z,29.60
2022-11-20T06:49:27.034Z,31.30
2022-11-20T06:51:54.182Z,32.30
2022-11-20T06:54:21.217Z,32.70
2022-11-20T06:56:49.204Z,31.40
2022-11-20T06:59:16.330Z,33.60
2022-11-20T07:01:43.325Z,37.80
2022-11-20T07:04:10.400Z,34.20
2022-11-20T07:06:37.522Z,34.50
2022-11-20T07:09:07.421Z,34.90
2022-11-20T07:11:38.506Z,35.30
2022-11-20T07:14:05.633Z,31.20
2022-11-20T07:16:32.679Z,28.20
2022-11-20T07:18:59.730Z,35.90
2022-11-20T07:21:26.853Z,36.10
2022-11-20T07:23:53.901Z,32.50
2022-11-20T07:26:21.129Z,57.20
2022-11-20T07:28:48.152Z,44.10
2022-11-20T07:31:19.165Z,47.20
2022-11-20T07:33:47.393Z,55.50
2022-11-20T07:36:14.443Z,50.70
2022-11-20T07:38:41.491Z,44.30
2022-11-20T07:41:08.492Z,45.30
2022-11-20T07:43:40.864Z,87.70
2022-11-20T07:46:08.344Z,72.90
2022-11-20T07:48:35.342Z,88.60
2022-11-20T07:51:02.519Z,93.80
2022-11-20T07:53:29.642Z,100.70
2022-11-20T07:56:01.015Z,92.80
2022-11-20T07:58:30.495Z,45.70
2022-11-20T08:00:57.658Z,46.20
2022-11-20T08:03:25.828Z,37.60
2022-11-20T08:05:53.557Z,45.20
2022-11-20T08:08:21.671Z,37.50
2022-11-20T08:10:48.693Z,52.10
2022-11-20T08:13:34.417Z,42.10
2022-11-20T08:16:01.465Z,50.50
2022-11-20T08:18:31.773Z,43.10
2022-11-20T08:21:03.776Z,38.00
2022-11-20T08:23:31.321Z,51.40
2022-11-20T08:25:58.569Z,53.80
2022-11-20T08:28:25.623Z,44.50
2022-11-20T08:30:52.663Z,52.10
2022-11-20T08:33:19.915Z,51.40
2022-11-20T08:35:47.184Z,55.40
2022-11-20T08:38:14.248Z,55.50
2022-11-20T08:40:41.309Z,43.90
2022-11-20T08:43:08.391Z,40.80
2022-11-20T08:45:35.721Z,97.80
2022-11-20T08:48:06.494Z,52.30
2022-11-20T08:50:34.133Z,50.30
2022-11-20T08:53:07.589Z,50.10
2022-11-20T08:55:36.741Z,53.30
2022-11-20T08:58:07.654Z,52.30
2022-11-20T09:00:35.302Z,51.20
2022-11-20T09:03:02.791Z,50.70
2022-11-20T09:05:30.072Z,52.30
2022-11-20T09:07:58.455Z,66.50
2022-11-20T09:10:26.227Z,55.40
2022-11-20T09:12:53.781Z,90.00
2022-11-20T09:15:21.090Z,57.10
2022-11-20T09:17:59.704Z,61.40
2022-11-20T09:20:30.112Z,61.10
2022-11-20T09:22:58.280Z,70.70
2022-11-20T09:25:25.686Z,54.60
2022-11-20T09:27:59.481Z,133.50
2022-11-20T09:30:27.389Z,100.00
2022-11-20T09:32:54.771Z,131.10
2022-11-20T09:35:21.821Z,75.70
2022-11-20T09:37:48.941Z,59.40
2022-11-20T09:40:22.806Z,49.20
2022-11-20T09:43:13.580Z,51.00
2022-11-20T09:46:07.174Z,53.60
2022-11-20T09:48:58.772Z,56.40
2022-11-20T09:51:54.186Z,44.50
2022-11-20T09:54:23.846Z,42.80
2022-11-20T09:57:04.359Z,45.80
2022-11-20T09:59:43.157Z,47.10
2022-11-20T10:02:25.808Z,43.80
2022-11-20T10:05:08.079Z,47.20
2022-11-20T10:07:42.700Z,77.90
2022-11-20T10:10:27.852Z,59.80
2022-11-20T10:13:13.637Z,42.60
2022-11-20T10:16:07.413Z,41.10
2022-11-20T10:18:34.461Z,39.60
2022-11-20T10:21:17.534Z,35.70
2022-11-20T10:23:56.589Z,67.40
2022-11-20T10:26:31.984Z,52.00
2022-11-20T10:29:11.068Z,45.80
2022-11-20T10:31:41.755Z,45.10
2022-11-20T10:34:23.446Z,53.20
2022-11-20T10:37:14.172Z,39.40
2022-11-20T10:39:59.570Z,33.00
2022-11-20T10:42:45.412Z,45.80
2022-11-20T10:45:30.610Z,55.40
2022-11-20T10:48:12.736Z,45.80
2022-11-20T10:50:52.591Z,40.10
2022-11-20T10:53:41.826Z,48.50
2022-11-20T10:56:18.578Z,51.00
2022-11-20T10:58:50.008Z,59.90
2022-11-20T11:01:19.830Z,64.40
2022-11-20T11:03:47.403Z,51.40
2022-11-20T11:06:27.867Z,70.90
2022-11-20T11:09:00.280Z,65.80
2022-11-20T11:11:30.742Z,47.10
2022-11-20T11:14:08.086Z,41.40
2022-11-20T11:16:35.590Z,39.40
2022-11-20T11:19:14.325Z,53.40
2022-11-20T11:21:53.858Z,63.20
2022-11-20T11:24:41.582Z,52.00
2022-11-20T11:27:19.021Z,48.10
2022-11-20T11:29:47.382Z,45.20
2022-11-20T11:32:22.443Z,38.20
2022-11-20T11:35:05.578Z,35.20
2022-11-20T11:37:38.608Z,38.30
2022-11-20T11:40:24.746Z,56.90
2022-11-20T11:42:59.510Z,47.80
2022-11-20T11:45:27.352Z,41.70
2022-11-20T11:47:58.114Z,41.20
2022-11-20T11:50:27.283Z,37.40
2022-11-20T11:53:14.531Z,38.90
2022-11-20T11:55:51.048Z,36.20
2022-11-20T11:58:45.439Z,38.40
2022-11-20T12:01:32.877Z,37.00
2022-11-20T12:04:22.389Z,35.50
2022-11-20T12:06:57.663Z,51.00
2022-11-20T12:09:38.732Z,51.90
2022-11-20T12:12:12.617Z,41.80
2022-11-20T12:14:44.170Z,40.90
2022-11-20T12:17:13.548Z,47.70
2022-11-20T12:19:41.159Z,45.90
2022-11-20T12:22:44.792Z,40.60
2022-11-20T12:25:30.219Z,43.20
2022-11-20T12:28:19.103Z,56.20
2022-11-20T12:31:20.459Z,118.00
2022-11-20T12:33:52.088Z,44.50
2022-11-20T12:36:21.823Z,95.80
2022-11-20T12:38:57.626Z,113.20
2022-11-20T12:42:12.574Z,42.10
2022-11-20T12:45:10.342Z,135.80
2022-11-20T12:47:48.093Z,54.30
2022-11-20T12:50:47.590Z,63.20
2022-11-20T12:53:37.995Z,254.30
2022-11-20T12:56:53.403Z,394.60
2022-11-20T12:59:55.089Z,245.10
2022-11-20T13:02:55.602Z,62.90
2022-11-20T13:05:38.235Z,52.20
2022-11-20T13:08:19.843Z,53.50
2022-11-20T13:10:50.072Z,63.70
2022-11-20T13:13:24.621Z,51.70
2022-11-20T13:16:02.603Z,56.00
2022-11-20T13:18:35.204Z,56.00
2022-11-20T13:21:02.356Z,57.30
2022-11-20T13:23:29.890Z,52.50
2022-11-20T13:26:21.490Z,49.50
2022-11-20T13:29:01.188Z,48.10
2022-11-20T13:31:35.959Z,47.50
2022-11-20T13:34:06.851Z,53.60
2022-11-20T13:36:36.115Z,43.90
2022-11-20T13:39:04.302Z,37.60
2022-11-20T13:41:40.640Z,57.50
2022-11-20T13:44:26.275Z,46.80
2022-11-20T13:46:53.452Z,45.70
2022-11-20T13:49:26.592Z,45.40
2022-11-20T13:52:19.567Z,59.30
2022-11-20T13:55:02.317Z,44.40
2022-11-20T13:58:20.307Z,52.30
2022-11-20T14:00:56.626Z,44.90
2022-11-20T14:03:51.074Z,44.00
2022-11-20T14:06:22.772Z,41.40
2022-11-20T14:08:50.181Z,46.00
2022-11-20T14:11:21.169Z,44.40
2022-11-20T14:13:59.327Z,44.30
2022-11-20T14:16:29.626Z,43.90
2022-11-20T14:18:58.032Z,43.20
2022-11-20T14:21:30.608Z,43.80
2022-11-20T14:24:07.767Z,41.20
2022-11-20T14:26:35.236Z,37.10
2022-11-20T14:29:02.479Z,33.90
2022-11-20T14:31:29.865Z,33.90
2022-11-20T14:33:57.727Z,33.80
2022-11-20T14:36:26.786Z,41.20
2022-11-20T14:38:54.922Z,37.10
2022-11-20T14:41:24.661Z,56.30
2022-11-20T14:43:59.951Z,43.60
2022-11-20T14:46:28.662Z,44.80
2022-11-20T14:48:58.294Z,51.00
2022-11-20T14:51:32.285Z,56.90
2022-11-20T14:54:16.693Z,39.50
2022-11-20T14:56:55.905Z,81.90
2022-11-20T14:59:28.599Z,81.40
2022-11-20T15:02:11.908Z,115.50
2022-11-20T15:04:58.282Z,59.80
2022-11-20T15:07:47.091Z,47.00
2022-11-20T15:10:22.671Z,43.40
2022-11-20T15:15:33.732Z,43.20
2022-11-20T15:18:01.192Z,39.80
2022-11-20T15:20:33.433Z,42.90
2022-11-20T15:23:00.867Z,35.50
2022-11-20T15:25:29.295Z,28.60
2022-11-20T15:27:57.499Z,42.20
2022-11-20T15:30:25.315Z,81.10
2022-11-20T15:32:52.642Z,105.10
2022-11-20T15:35:19.769Z,69.40
2022-11-20T15:37:47.079Z,74.00
2022-11-20T15:40:14.147Z,67.60
2022-11-20T15:43:01.189Z,44.50
2022-11-20T15:45:37.401Z,42.20
2022-11-20T15:48:04.833Z,42.80
2022-11-20T15:50:40.202Z,32.00
2022-11-20T15:53:07.352Z,40.40
2022-11-20T15:55:34.326Z,39.30
2022-11-20T15:58:02.116Z,40.90
2022-11-20T16:00:29.187Z,44.60
2022-11-20T16:02:56.212Z,39.10
2022-11-20T16:05:24.309Z,39.40
2022-11-20T16:07:52.252Z,37.10
2022-11-20T16:10:19.224Z,38.60
2022-11-20T16:13:05.164Z,48.00
2022-11-20T16:15:47.499Z,37.80
2022-11-20T16:18:20.019Z,31.90
2022-11-20T16:20:49.606Z,33.50
2022-11-20T16:23:16.861Z,35.20
2022-11-20T16:25:44.598Z,37.90
2022-11-20T16:28:17.451Z,48.30
2022-11-20T16:30:46.171Z,41.80
2022-11-20T16:33:15.862Z,52.70
2022-11-20T16:35:42.876Z,52.10
2022-11-20T16:38:10.719Z,34.70
2022-11-20T16:40:37.792Z,61.10
2022-11-20T16:43:10.707Z,60.70
2022-11-20T16:45:42.850Z,36.30
2022-11-20T16:48:13.388Z,77.30
2022-11-20T16:50:53.686Z,36.40
2022-11-20T16:53:22.061Z,38.90
2022-11-20T16:55:49.165Z,36.10
2022-11-20T16:58:16.543Z,44.60
2022-11-20T17:00:49.945Z,47.40
2022-11-20T17:03:19.523Z,43.00
2022-11-20T17:05:46.550Z,63.60
2022-11-20T17:08:13.595Z,85.00
2022-11-20T17:10:40.622Z,48.40
2022-11-20T17:13:08.485Z,38.40
2022-11-20T17:15:35.533Z,100.50
2022-11-20T17:18:03.760Z,72.80
2022-11-20T17:20:32.421Z,121.20
2022-11-20T17:22:59.469Z,80.40
2022-11-20T17:25:26.516Z,63.00
2022-11-20T17:27:54.640Z,65.80
2022-11-20T17:30:21.665Z,61.10
2022-11-20T17:32:48.683Z,54.20
2022-11-20T17:35:15.860Z,60.20
2022-11-20T17:37:42.860Z,131.70
2022-11-20T17:40:10.136Z,70.70
2022-11-20T17:42:37.234Z,52.80
2022-11-20T17:45:05.016Z,57.10
2022-11-20T17:47:32.009Z,46.60
2022-11-20T17:49:59.074Z,63.00
2022-11-20T17:52:26.606Z,56.10
2022-11-20T17:54:56.138Z,54.10
2022-11-20T17:57:42.719Z,54.40
2022-11-20T18:00:13.206Z,57.50
2022-11-20T18:02:40.301Z,47.80
2022-11-20T18:05:07.754Z,56.90
2022-11-20T18:07:41.296Z,99.20
2022-11-20T18:10:09.477Z,77.30
2022-11-20T18:12:36.526Z,73.80
2022-11-20T18:15:03.933Z,93.20
2022-11-20T18:17:31.037Z,55.10
2022-11-20T18:20:26.753Z,52.20
2022-11-20T18:22:45.302Z,47.60
2022-11-20T18:25:12.274Z,71.90
2022-11-20T18:27:39.323Z,69.70
2022-11-20T18:30:07.416Z,54.20
2022-11-20T18:32:36.019Z,87.20
2022-11-20T18:35:03.870Z,64.60
2022-11-20T18:37:32.159Z,75.00
2022-11-20T18:39:59.350Z,94.30
2022-11-20T18:42:45.190Z,78.20
2022-11-20T18:45:12.288Z,57.00
2022-11-20T18:47:40.369Z,68.20
2022-11-20T18:50:08.921Z,75.80
2022-11-20T18:52:44.871Z,79.90
2022-11-20T18:55:12.874Z,81.60
2022-11-20T18:57:40.389Z,117.50
2022-11-20T19:00:09.854Z,107.50
2022-11-20T19:02:43.051Z,102.80
2022-11-20T19:05:14.499Z,131.30
2022-11-20T19:07:42.553Z,75.00
2022-11-20T19:10:10.076Z,97.00
2022-11-20T19:12:37.339Z,118.10
2022-11-20T19:15:04.833Z,133.10
2022-11-20T19:20:00.359Z,152.70
2022-11-20T19:22:27.452Z,121.30
2022-11-20T19:24:54.524Z,111.40
2022-11-20T19:27:21.574Z,96.70
2022-11-20T19:29:48.954Z,108.70
2022-11-20T19:32:16.640Z,104.90
2022-11-20T19:34:43.894Z,80.30
2022-11-20T19:37:10.995Z,88.50
2022-11-20T19:39:38.093Z,89.00
2022-11-20T19:42:05.525Z,112.70
2022-11-20T19:44:33.174Z,116.10
2022-11-20T19:47:00.901Z,104.50
2022-11-20T19:49:27.976Z,110.40
2022-11-20T19:51:55.130Z,123.60
2022-11-20T19:54:22.252Z,110.80
2022-11-20T19:56:50.645Z,112.10
2022-11-20T19:59:18.031Z,100.40
2022-11-20T20:01:45.408Z,104.60
2022-11-20T20:04:12.635Z,102.20
2022-11-20T20:06:40.360Z,82.80
2022-11-20T20:09:09.301Z,84.20
2022-11-20T20:11:36.683Z,115.00
2022-11-20T20:14:06.035Z,87.80
2022-11-20T20:16:34.414Z,96.40
2022-11-20T20:19:03.332Z,116.60
2022-11-20T20:21:31.915Z,129.50
2022-11-20T20:23:59.700Z,143.90
2022-11-20T20:26:29.570Z,140.30
2022-11-20T20:28:56.697Z,185.40
2022-11-20T20:31:25.895Z,111.80
2022-11-20T20:33:53.200Z,112.50
2022-11-20T20:36:22.088Z,102.00
2022-11-20T20:38:55.156Z,90.20
2022-11-20T20:41:23.816Z,70.90
2022-11-20T20:44:09.627Z,72.80
2022-11-20T20:46:36.726Z,83.10
2022-11-20T20:49:03.928Z,93.30
2022-11-20T20:51:31.309Z,112.10
2022-11-20T20:53:58.376Z,157.10
2022-11-20T20:56:25.521Z,101.00
2022-11-20T20:58:52.637Z,150.80
2022-11-20T21:01:20.509Z,149.20
2022-11-20T21:03:47.631Z,86.50
2022-11-20T21:06:14.929Z,83.70
2022-11-20T21:08:44.249Z,60.50
2022-11-20T21:11:14.839Z,60.80
2022-11-20T21:13:43.665Z,51.90
2022-11-20T21:16:12.517Z,49.60
2022-11-20T21:18:39.555Z,63.70
2022-11-20T21:21:27.712Z,57.10
2022-11-20T21:23:54.760Z,64.00
2022-11-20T21:26:22.096Z,57.10
2022-11-20T21:28:50.088Z,66.40
2022-11-20T21:31:22.259Z,79.60
2022-11-20T21:33:51.275Z,64.20
2022-11-20T21:36:20.597Z,206.30
2022-11-20T21:38:48.439Z,98.00
2022-11-20T21:41:15.798Z,71.80
2022-11-20T21:43:44.352Z,65.90
2022-11-20T21:46:14.011Z,71.00
2022-11-20T21:48:42.802Z,77.00
2022-11-20T21:51:12.868Z,65.30
2022-11-20T21:53:40.327Z,62.20
2022-11-20T21:56:08.757Z,55.60
2022-11-20T21:58:37.367Z,72.70
2022-11-20T22:01:12.063Z,58.80
2022-11-20T22:03:39.837Z,58.50
2022-11-20T22:06:08.393Z,70.40
2022-11-20T22:08:37.515Z,92.40
2022-11-20T22:11:07.379Z,171.00
2022-11-20T22:13:53.577Z,75.60
2022-11-20T22:16:21.828Z,106.50
2022-11-20T22:18:51.063Z,83.00
2022-11-20T22:21:20.432Z,80.40
2022-11-20T22:23:47.968Z,83.90
2022-11-20T22:26:20.543Z,70.90
2022-11-20T22:28:50.024Z,89.90
2022-11-20T22:31:18.193Z,84.20
2022-11-20T22:33:45.565Z,95.10
2022-11-20T22:36:18.313Z,67.80
2022-11-20T22:38:45.921Z,62.20
2022-11-20T22:41:12.943Z,91.70
2022-11-20T22:43:41.486Z,83.20
2022-11-20T22:46:09.477Z,65.40
2022-11-20T22:48:39.387Z,63.40
2022-11-20T22:51:14.968Z,60.30
2022-11-20T22:56:14.164Z,60.10
2022-11-20T22:58:43.555Z,53.70
2022-11-20T23:01:13.279Z,49.60
2022-11-20T23:03:42.650Z,53.20
2022-11-20T23:06:10.454Z,51.90
2022-11-20T23:08:38.966Z,62.80
2022-11-20T23:11:11.408Z,61.90
2022-11-20T23:13:39.591Z,61.40
2022-11-20T23:16:12.450Z,63.20
2022-11-20T23:18:39.957Z,62.10
2022-11-20T23:21:08.850Z,62.10
2022-11-20T23:23:36.436Z,66.20
2022-11-20T23:26:11.706Z,143.30
2022-11-20T23:28:39.870Z,69.80
2022-11-20T23:31:07.999Z,75.40
2022-11-20T23:33:40.449Z,63.90
2022-11-20T23:36:08.447Z,65.60
2022-11-20T23:38:35.928Z,79.70
2022-11-20T23:41:03.852Z,61.70
2022-11-20T23:43:30.975Z,61.00
2022-11-20T23:45:59.606Z,56.30
2022-11-20T23:48:29.190Z,56.90
2022-11-20T23:50:56.980Z,62.50
2022-11-20T23:53:24.719Z,84.80
2022-11-20T23:55:57.784Z,65.80
2022-11-20T23:58:26.420Z,56.80
